createdAt,value
2022-08-11T00:04:07.800Z,99.90
2022-08-11T00:08:53.881Z,99.90
2022-08-11T00:13:39.304Z,99.90
2022-08-11T00:18:23.049Z,99.90
2022-08-11T00:23:09.680Z,99.90
2022-08-11T00:27:54.706Z,99.90
2022-08-11T00:32:39.847Z,99.90
2022-08-11T00:37:25.133Z,99.90
2022-08-11T00:42:17.284Z,99.90
2022-08-11T00:47:11.988Z,99.90
2022-08-11T00:52:09.887Z,99.90
2022-08-11T00:57:38.251Z,99.90
2022-08-11T01:02:40.847Z,99.90
2022-08-11T01:08:03.542Z,99.90
2022-08-11T01:12:58.332Z,99.90
2022-08-11T01:18:17.618Z,99.90
2022-08-11T01:23:49.498Z,99.90
2022-08-11T01:29:19.144Z,99.90
2022-08-11T01:34:45.671Z,99.90
2022-08-11T01:40:16.568Z,99.90
2022-08-11T01:45:17.810Z,99.90
2022-08-11T01:50:14.298Z,99.90
2022-08-11T01:55:12.322Z,99.90
2022-08-11T02:00:09.243Z,99.90
2022-08-11T02:05:01.168Z,99.90
2022-08-11T02:09:55.928Z,99.90
2022-08-11T02:15:04.566Z,99.90
2022-08-11T02:20:17.305Z,99.90
2022-08-11T02:25:06.053Z,99.90
2022-08-11T02:30:05.495Z,99.90
2022-08-11T02:35:00.286Z,99.90
2022-08-11T02:39:57.570Z,99.90
2022-08-11T02:44:48.542Z,99.90
2022-08-11T02:50:02.575Z,99.90
2022-08-11T02:55:03.204Z,99.90
2022-08-11T02:59:53.851Z,99.90
2022-08-11T03:04:50.072Z,99.90
2022-08-11T03:09:46.880Z,99.90
2022-08-11T03:14:55.563Z,99.90
2022-08-11T03:19:47.865Z,99.90
2022-08-11T03:24:41.931Z,99.90
2022-08-11T03:29:36.874Z,99.90
2022-08-11T03:34:25.914Z,99.90
2022-08-11T03:39:17.229Z,99.90
2022-08-11T03:44:09.131Z,99.90
2022-08-11T03:49:07.155Z,99.90
2022-08-11T03:54:05.639Z,99.90
2022-08-11T03:59:24.598Z,99.90
2022-08-11T04:04:40.556Z,99.90
2022-08-11T04:10:08.558Z,99.90
2022-08-11T04:15:30.463Z,99.90
2022-08-11T04:20:44.871Z,99.90
2022-08-11T04:25:58.682Z,99.90
2022-08-11T04:31:05.502Z,99.90
2022-08-11T04:35:59.297Z,99.90
2022-08-11T04:41:16.886Z,99.90
2022-08-11T04:46:37.834Z,99.90
2022-08-11T04:52:02.710Z,99.90
2022-08-11T04:57:07.179Z,99.90
2022-08-11T05:02:19.977Z,99.90
2022-08-11T05:07:57.306Z,99.90
2022-08-11T05:12:50.439Z,99.90
2022-08-11T05:17:56.816Z,99.90
2022-08-11T05:23:03.173Z,99.90
2022-08-11T05:28:23.686Z,99.90
2022-08-11T05:33:28.019Z,99.90
2022-08-11T05:38:34.975Z,99.90
2022-08-11T05:43:37.762Z,99.90
2022-08-11T05:49:00.465Z,99.90
2022-08-11T05:54:29.341Z,99.90
2022-08-11T05:59:19.777Z,99.90
2022-08-11T06:04:17.442Z,99.90
2022-08-11T06:09:02.426Z,99.90
2022-08-11T06:13:47.289Z,99.90
2022-08-11T06:18:34.381Z,99.90
2022-08-11T06:23:20.659Z,99.90
2022-08-11T06:28:06.804Z,99.90
2022-08-11T06:32:57.820Z,99.90
2022-08-11T06:38:03.806Z,99.90
2022-08-11T06:42:53.358Z,99.90
2022-08-11T06:47:37.782Z,99.90
2022-08-11T06:52:35.633Z,99.90
2022-08-11T06:57:48.000Z,99.90
2022-08-11T07:02:35.088Z,99.90
2022-08-11T07:08:33.167Z,99.90
2022-08-11T07:13:55.603Z,99.90
2022-08-11T07:18:57.900Z,99.90
2022-08-11T07:23:59.515Z,99.90
2022-08-11T07:28:58.957Z,99.90
2022-08-11T07:34:08.309Z,99.90
2022-08-11T07:38:52.883Z,99.90
2022-08-11T07:43:37.278Z,99.90
2022-08-11T07:48:39.560Z,99.90
2022-08-11T07:53:23.883Z,99.90
2022-08-11T07:58:26.049Z,99.90
2022-08-11T08:03:31.328Z,99.90
2022-08-11T08:08:34.807Z,99.90
2022-08-11T08:13:36.303Z,99.90
2022-08-11T08:18:26.814Z,99.90
2022-08-11T08:23:11.899Z,99.90
2022-08-11T08:27:58.644Z,99.90
2022-08-11T08:32:45.010Z,99.90
2022-08-11T08:37:46.614Z,99.90
2022-08-11T08:42:34.426Z,99.90
2022-08-11T08:47:43.065Z,99.90
2022-08-11T08:52:31.895Z,99.90
2022-08-11T08:57:30.184Z,99.90
2022-08-11T09:02:14.434Z,99.90
2022-08-11T09:07:08.285Z,99.90
2022-08-11T09:11:54.426Z,99.90
2022-08-11T09:16:39.639Z,99.90
2022-08-11T09:21:41.716Z,99.90
2022-08-11T09:26:47.564Z,99.90
2022-08-11T09:31:38.926Z,99.90
2022-08-11T09:36:41.715Z,99.90
2022-08-11T09:41:25.759Z,99.90
2022-08-11T09:46:11.864Z,99.80
2022-08-11T09:50:58.148Z,97.90
2022-08-11T09:55:41.977Z,98.10
2022-08-11T10:00:30.912Z,96.20
2022-08-11T10:05:38.130Z,96.50
2022-08-11T10:10:23.362Z,96.30
2022-08-11T10:15:27.785Z,94.60
2022-08-11T10:20:13.054Z,94.70
2022-08-11T10:25:19.878Z,93.90
2022-08-11T10:30:21.513Z,94.10
2022-08-11T10:35:09.371Z,92.10
2022-08-11T10:39:56.599Z,92.50
2022-08-11T10:44:44.797Z,92.10
2022-08-11T10:49:29.144Z,91.30
2022-08-11T10:54:30.722Z,90.80
2022-08-11T10:59:15.816Z,90.60
2022-08-11T11:04:03.633Z,90.70
2022-08-11T11:08:57.576Z,90.30
2022-08-11T11:14:07.125Z,90.00
2022-08-11T11:19:00.696Z,89.90
2022-08-11T11:24:14.239Z,88.50
2022-08-11T11:29:40.779Z,86.70
2022-08-11T11:34:53.065Z,84.90
2022-08-11T11:39:39.201Z,85.20
2022-08-11T11:44:23.903Z,83.50
2022-08-11T11:49:16.873Z,84.00
2022-08-11T11:54:02.438Z,84.70
2022-08-11T11:59:05.913Z,83.60
2022-08-11T12:03:52.229Z,81.40
2022-08-11T12:08:37.126Z,79.50
2022-08-11T12:13:38.346Z,80.00
2022-08-11T12:18:23.665Z,79.80
2022-08-11T12:23:24.927Z,79.80
2022-08-11T12:28:08.561Z,78.80
2022-08-11T12:32:52.762Z,78.80
2022-08-11T12:37:40.847Z,75.60
2022-08-11T12:42:44.528Z,76.60
2022-08-11T12:48:12.259Z,77.10
2022-08-11T12:53:07.857Z,75.90
2022-08-11T12:58:09.490Z,73.70
2022-08-11T13:03:10.786Z,73.60
2022-08-11T13:07:55.209Z,74.30
2022-08-11T13:12:51.151Z,75.20
2022-08-11T13:17:42.366Z,74.00
2022-08-11T13:22:28.787Z,73.20
2022-08-11T13:27:19.479Z,71.60
2022-08-11T13:32:05.195Z,70.90
2022-08-11T13:36:52.475Z,70.20
2022-08-11T13:41:39.605Z,70.50
2022-08-11T13:46:24.496Z,69.70
2022-08-11T13:51:35.215Z,69.60
2022-08-11T13:56:20.095Z,71.00
2022-08-11T14:01:11.353Z,68.00
2022-08-11T14:06:10.260Z,65.90
2022-08-11T14:11:19.931Z,67.40
2022-08-11T14:16:21.085Z,66.90
2022-08-11T14:21:24.300Z,66.70
2022-08-11T14:26:27.980Z,66.50
2022-08-11T14:31:12.357Z,65.60
2022-08-11T14:35:56.001Z,65.00
2022-08-11T14:40:57.065Z,65.10
2022-08-11T14:45:59.459Z,65.10
2022-08-11T14:50:43.425Z,65.00
2022-08-11T14:55:46.029Z,65.90
2022-08-11T15:00:30.036Z,67.50
2022-08-11T15:05:15.930Z,66.20
2022-08-11T15:10:16.535Z,66.90
2022-08-11T15:15:19.850Z,65.90
2022-08-11T15:20:23.530Z,64.70
2022-08-11T15:25:09.517Z,64.20
2022-08-11T15:30:33.730Z,65.90
2022-08-11T15:35:39.475Z,63.50
2022-08-11T15:40:47.756Z,66.30
2022-08-11T15:45:51.405Z,67.00
2022-08-11T15:50:40.253Z,66.10
2022-08-11T15:55:26.084Z,69.30
2022-08-11T16:00:33.498Z,69.90
2022-08-11T16:05:25.115Z,71.60
2022-08-11T16:10:22.924Z,70.90
2022-08-11T16:15:29.673Z,72.00
2022-08-11T16:20:16.067Z,73.40
2022-08-11T16:27:05.055Z,73.10
2022-08-11T16:30:06.079Z,71.70
2022-08-11T16:35:14.287Z,73.60
2022-08-11T16:39:58.058Z,74.80
2022-08-11T16:44:59.314Z,74.90
2022-08-11T16:49:52.331Z,74.50
2022-08-11T16:54:38.495Z,75.50
2022-08-11T16:59:28.350Z,76.40
2022-08-11T17:04:38.634Z,76.30
2022-08-11T17:09:43.435Z,77.90
2022-08-11T17:14:36.676Z,77.50
2022-08-11T17:20:39.468Z,79.00
2022-08-11T17:24:29.783Z,79.50
2022-08-11T17:29:14.038Z,80.70
2022-08-11T17:34:18.522Z,81.20
2022-08-11T17:39:02.241Z,83.00
2022-08-11T17:44:05.444Z,83.20
2022-08-11T17:48:49.240Z,85.20
2022-08-11T17:54:18.111Z,86.30
2022-08-11T17:59:19.763Z,85.90
2022-08-11T18:04:06.263Z,86.80
2022-08-11T18:09:10.600Z,89.50
2022-08-11T18:14:13.090Z,89.40
2022-08-11T18:19:15.217Z,90.30
2022-08-11T18:24:22.564Z,91.10
2022-08-11T18:29:25.927Z,91.80
2022-08-11T18:34:32.718Z,92.30
2022-08-11T18:39:38.633Z,92.90
2022-08-11T18:44:42.981Z,93.10
2022-08-11T18:50:02.226Z,93.90
2022-08-11T18:55:08.375Z,94.30
2022-08-11T19:00:18.769Z,94.60
2022-08-11T19:06:31.847Z,95.30
2022-08-11T19:10:49.955Z,95.80
2022-08-11T19:15:51.700Z,96.40
2022-08-11T19:20:54.188Z,96.70
2022-08-11T19:25:57.064Z,97.10
2022-08-11T19:30:59.050Z,97.70
2022-08-11T19:36:01.557Z,98.70
2022-08-11T19:41:04.806Z,98.60
2022-08-11T19:46:06.853Z,99.10
2022-08-11T19:51:08.746Z,99.50
2022-08-11T19:56:14.023Z,99.80
2022-08-11T20:01:24.423Z,99.90
2022-08-11T20:06:28.140Z,99.90
2022-08-11T20:11:32.644Z,99.90
2022-08-11T20:16:37.158Z,99.90
2022-08-11T20:21:39.563Z,99.90
2022-08-11T20:26:42.194Z,99.90
2022-08-11T20:31:44.071Z,99.90
2022-08-11T20:36:48.752Z,99.90
2022-08-11T20:41:59.603Z,99.90
2022-08-11T20:47:01.602Z,99.90
2022-08-11T20:52:06.350Z,99.90
2022-08-11T20:57:12.856Z,99.90
2022-08-11T21:02:18.273Z,99.90
2022-08-11T21:07:28.434Z,99.90
2022-08-11T21:12:43.160Z,99.90
2022-08-11T21:18:00.267Z,99.90
2022-08-11T21:23:19.922Z,99.90
2022-08-11T21:28:28.599Z,99.90
2022-08-11T21:33:39.962Z,99.90
2022-08-11T21:38:44.555Z,99.90
2022-08-11T21:43:50.404Z,99.90
2022-08-11T21:48:53.337Z,99.90
2022-08-11T21:53:54.725Z,99.90
2022-08-11T21:58:58.342Z,99.90
2022-08-11T22:04:08.077Z,99.90
2022-08-11T22:09:09.421Z,99.90
2022-08-11T22:14:11.642Z,99.90
2022-08-11T22:19:12.837Z,99.90
2022-08-11T22:24:14.858Z,99.90
2022-08-11T22:29:21.106Z,99.90
2022-08-11T22:34:52.738Z,99.90
2022-08-11T22:40:02.358Z,99.90
2022-08-11T22:45:05.662Z,99.90
2022-08-11T22:50:09.685Z,99.90
2022-08-11T22:55:11.613Z,99.90
2022-08-11T23:00:15.867Z,99.90
2022-08-11T23:05:18.125Z,99.90
2022-08-11T23:10:19.395Z,99.90
2022-08-11T23:15:22.160Z,99.90
2022-08-11T23:20:36.219Z,99.90
2022-08-11T23:25:46.711Z,99.90
2022-08-11T23:30:50.401Z,99.90
2022-08-11T23:35:56.650Z,99.90
2022-08-11T23:41:00.536Z,99.90
2022-08-11T23:46:02.794Z,99.90
2022-08-11T23:51:04.479Z,99.90
2022-08-11T23:56:05.764Z,99.90
